sensor_id;sensor_type;location;lat;lon;timestamp;temperature;humidity
83472;SHT30;74051;47.120;18.370;2023-11-21T00:02:23;6.72;89.26
83472;SHT30;74051;47.120;18.370;2023-11-21T00:04:50;6.72;89.86
83472;SHT30;74051;47.120;18.370;2023-11-21T00:07:16;6.75;88.94
83472;SHT30;74051;47.120;18.370;2023-11-21T00:09:43;6.77;90.03
83472;SHT30;74051;47.120;18.370;2023-11-21T00:12:09;6.65;88.65
83472;SHT30;74051;47.120;18.370;2023-11-21T00:14:37;6.67;89.07
83472;SHT30;74051;47.120;18.370;2023-11-21T00:17:04;6.70;88.97
83472;SHT30;74051;47.120;18.370;2023-11-21T00:19:32;6.70;90.00
83472;SHT30;74051;47.120;18.370;2023-11-21T00:21:59;6.66;88.80
83472;SHT30;74051;47.120;18.370;2023-11-21T00:24:26;6.59;90.00
83472;SHT30;74051;47.120;18.370;2023-11-21T00:26:52;6.56;88.93
83472;SHT30;74051;47.120;18.370;2023-11-21T00:29:19;6.54;91.22
83472;SHT30;74051;47.120;18.370;2023-11-21T00:31:46;6.60;90.01
83472;SHT30;74051;47.120;18.370;2023-11-21T00:34:12;6.65;90.58
83472;SHT30;74051;47.120;18.370;2023-11-21T00:36:39;6.79;88.63
83472;SHT30;74051;47.120;18.370;2023-11-21T00:39:06;6.88;89.20
83472;SHT30;74051;47.120;18.370;2023-11-21T00:41:34;6.93;87.47
83472;SHT30;74051;47.120;18.370;2023-11-21T00:44:03;6.90;87.19
83472;SHT30;74051;47.120;18.370;2023-11-21T00:46:30;6.93;87.53
83472;SHT30;74051;47.120;18.370;2023-11-21T00:48:56;6.90;88.37
83472;SHT30;74051;47.120;18.370;2023-11-21T00:51:23;6.84;89.01
83472;SHT30;74051;47.120;18.370;2023-11-21T00:53:50;6.83;89.17
83472;SHT30;74051;47.120;18.370;2023-11-21T00:56:18;6.86;89.45
83472;SHT30;74051;47.120;18.370;2023-11-21T00:58:44;6.83;88.44
83472;SHT30;74051;47.120;18.370;2023-11-21T01:01:16;6.86;89.86
83472;SHT30;74051;47.120;18.370;2023-11-21T01:03:43;6.87;90.42
83472;SHT30;74051;47.120;18.370;2023-11-21T01:06:09;6.91;90.26
83472;SHT30;74051;47.120;18.370;2023-11-21T01:08:36;6.84;88.54
83472;SHT30;74051;47.120;18.370;2023-11-21T01:11:03;6.88;89.73
83472;SHT30;74051;47.120;18.370;2023-11-21T01:13:30;7.04;88.38
83472;SHT30;74051;47.120;18.370;2023-11-21T01:15:56;6.94;87.88
83472;SHT30;74051;47.120;18.370;2023-11-21T01:18:23;6.72;88.20
83472;SHT30;74051;47.120;18.370;2023-11-21T01:20:52;6.86;89.31
83472;SHT30;74051;47.120;18.370;2023-11-21T01:23:19;6.88;90.08
83472;SHT30;74051;47.120;18.370;2023-11-21T01:25:46;6.73;87.95
83472;SHT30;74051;47.120;18.370;2023-11-21T01:28:13;6.77;89.29
83472;SHT30;74051;47.120;18.370;2023-11-21T01:30:39;6.83;89.22
83472;SHT30;74051;47.120;18.370;2023-11-21T01:33:06;6.75;88.55
83472;SHT30;74051;47.120;18.370;2023-11-21T01:35:32;6.83;87.14
83472;SHT30;74051;47.120;18.370;2023-11-21T01:37:59;6.90;88.00
83472;SHT30;74051;47.120;18.370;2023-11-21T01:40:25;6.96;87.89
83472;SHT30;74051;47.120;18.370;2023-11-21T01:42:53;6.87;87.45
83472;SHT30;74051;47.120;18.370;2023-11-21T01:45:19;6.87;87.20
83472;SHT30;74051;47.120;18.370;2023-11-21T01:47:46;6.83;89.32
83472;SHT30;74051;47.120;18.370;2023-11-21T01:50:16;6.70;88.77
83472;SHT30;74051;47.120;18.370;2023-11-21T01:52:47;6.72;90.39
83472;SHT30;74051;47.120;18.370;2023-11-21T01:55:16;6.77;89.03
83472;SHT30;74051;47.120;18.370;2023-11-21T01:57:45;6.79;89.98
83472;SHT30;74051;47.120;18.370;2023-11-21T02:00:13;6.69;89.03
83472;SHT30;74051;47.120;18.370;2023-11-21T02:02:43;6.79;89.55
83472;SHT30;74051;47.120;18.370;2023-11-21T02:05:14;6.75;89.73
83472;SHT30;74051;47.120;18.370;2023-11-21T02:07:41;6.77;88.84
83472;SHT30;74051;47.120;18.370;2023-11-21T02:10:12;6.84;90.17
83472;SHT30;74051;47.120;18.370;2023-11-21T02:12:41;6.88;89.26
83472;SHT30;74051;47.120;18.370;2023-11-21T02:15:10;6.83;90.15
83472;SHT30;74051;47.120;18.370;2023-11-21T02:17:42;6.83;90.31
83472;SHT30;74051;47.120;18.370;2023-11-21T02:20:13;6.87;89.15
83472;SHT30;74051;47.120;18.370;2023-11-21T02:22:49;6.91;89.99
83472;SHT30;74051;47.120;18.370;2023-11-21T02:25:16;6.90;88.92
83472;SHT30;74051;47.120;18.370;2023-11-21T02:27:42;6.86;89.18
83472;SHT30;74051;47.120;18.370;2023-11-21T02:30:09;6.98;88.17
83472;SHT30;74051;47.120;18.370;2023-11-21T02:32:39;6.98;88.09
83472;SHT30;74051;47.120;18.370;2023-11-21T02:35:06;6.96;88.00
83472;SHT30;74051;47.120;18.370;2023-11-21T02:37:34;6.98;87.19
83472;SHT30;74051;47.120;18.370;2023-11-21T02:40:02;7.00;86.73
83472;SHT30;74051;47.120;18.370;2023-11-21T02:42:34;6.93;87.40
83472;SHT30;74051;47.120;18.370;2023-11-21T02:45:00;6.87;88.38
83472;SHT30;74051;47.120;18.370;2023-11-21T02:47:26;6.84;88.94
83472;SHT30;74051;47.120;18.370;2023-11-21T02:49:53;6.80;90.07
83472;SHT30;74051;47.120;18.370;2023-11-21T02:52:19;6.72;90.33
83472;SHT30;74051;47.120;18.370;2023-11-21T02:54:47;6.69;89.93
83472;SHT30;74051;47.120;18.370;2023-11-21T02:57:13;6.66;89.90
83472;SHT30;74051;47.120;18.370;2023-11-21T02:59:40;6.69;90.23
83472;SHT30;74051;47.120;18.370;2023-11-21T03:02:06;6.67;89.69
83472;SHT30;74051;47.120;18.370;2023-11-21T03:04:35;6.66;89.12
83472;SHT30;74051;47.120;18.370;2023-11-21T03:07:01;6.54;89.36
83472;SHT30;74051;47.120;18.370;2023-11-21T03:09:27;6.52;89.30
83472;SHT30;74051;47.120;18.370;2023-11-21T03:11:54;6.48;89.52
83472;SHT30;74051;47.120;18.370;2023-11-21T03:14:21;6.33;89.81
83472;SHT30;74051;47.120;18.370;2023-11-21T03:16:48;6.36;90.54
83472;SHT30;74051;47.120;18.370;2023-11-21T03:19:15;6.46;89.67
83472;SHT30;74051;47.120;18.370;2023-11-21T03:21:42;6.48;89.30
83472;SHT30;74051;47.120;18.370;2023-11-21T03:24:08;6.46;89.24
83472;SHT30;74051;47.120;18.370;2023-11-21T03:26:35;6.39;89.09
83472;SHT30;74051;47.120;18.370;2023-11-21T03:29:04;6.35;89.22
83472;SHT30;74051;47.120;18.370;2023-11-21T03:31:31;6.40;89.28
83472;SHT30;74051;47.120;18.370;2023-11-21T03:33:57;6.50;88.19
83472;SHT30;74051;47.120;18.370;2023-11-21T03:36:23;6.46;88.49
83472;SHT30;74051;47.120;18.370;2023-11-21T03:38:53;6.45;88.69
83472;SHT30;74051;47.120;18.370;2023-11-21T03:41:19;6.48;89.92
83472;SHT30;74051;47.120;18.370;2023-11-21T03:43:46;6.40;90.53
83472;SHT30;74051;47.120;18.370;2023-11-21T03:46:14;6.54;89.32
83472;SHT30;74051;47.120;18.370;2023-11-21T03:48:40;6.53;89.23
83472;SHT30;74051;47.120;18.370;2023-11-21T03:51:08;6.57;89.22
83472;SHT30;74051;47.120;18.370;2023-11-21T03:53:35;6.57;89.45
83472;SHT30;74051;47.120;18.370;2023-11-21T03:56:02;6.80;88.27
83472;SHT30;74051;47.120;18.370;2023-11-21T03:58:29;6.86;89.04
83472;SHT30;74051;47.120;18.370;2023-11-21T04:00:56;6.75;87.92
83472;SHT30;74051;47.120;18.370;2023-11-21T04:03:22;6.87;87.92
83472;SHT30;74051;47.120;18.370;2023-11-21T04:05:49;7.03;87.33
83472;SHT30;74051;47.120;18.370;2023-11-21T04:08:15;7.07;87.47
83472;SHT30;74051;47.120;18.370;2023-11-21T04:10:41;7.07;88.38
83472;SHT30;74051;47.120;18.370;2023-11-21T04:13:08;6.90;87.70
83472;SHT30;74051;47.120;18.370;2023-11-21T04:15:34;6.88;88.68
83472;SHT30;74051;47.120;18.370;2023-11-21T04:18:01;7.04;87.52
83472;SHT30;74051;47.120;18.370;2023-11-21T04:20:27;7.09;87.19
83472;SHT30;74051;47.120;18.370;2023-11-21T04:22:53;7.08;87.76
83472;SHT30;74051;47.120;18.370;2023-11-21T04:25:20;7.04;87.79
83472;SHT30;74051;47.120;18.370;2023-11-21T04:27:46;7.03;88.41
83472;SHT30;74051;47.120;18.370;2023-11-21T04:30:14;6.98;87.71
83472;SHT30;74051;47.120;18.370;2023-11-21T04:32:40;6.98;87.78
83472;SHT30;74051;47.120;18.370;2023-11-21T04:35:08;7.03;88.08
83472;SHT30;74051;47.120;18.370;2023-11-21T04:37:34;6.98;88.40
83472;SHT30;74051;47.120;18.370;2023-11-21T04:40:01;7.01;88.10
83472;SHT30;74051;47.120;18.370;2023-11-21T04:42:27;6.97;89.75
83472;SHT30;74051;47.120;18.370;2023-11-21T04:44:55;6.90;89.34
83472;SHT30;74051;47.120;18.370;2023-11-21T04:47:21;6.75;88.81
83472;SHT30;74051;47.120;18.370;2023-11-21T04:49:48;6.73;89.85
83472;SHT30;74051;47.120;18.370;2023-11-21T04:52:14;6.83;89.78
83472;SHT30;74051;47.120;18.370;2023-11-21T04:54:40;7.00;87.91
83472;SHT30;74051;47.120;18.370;2023-11-21T04:57:07;6.97;88.59
83472;SHT30;74051;47.120;18.370;2023-11-21T04:59:34;7.01;88.15
83472;SHT30;74051;47.120;18.370;2023-11-21T05:02:00;6.96;87.84
83472;SHT30;74051;47.120;18.370;2023-11-21T05:04:27;6.86;89.16
83472;SHT30;74051;47.120;18.370;2023-11-21T05:06:53;6.93;89.20
83472;SHT30;74051;47.120;18.370;2023-11-21T05:09:19;6.73;89.75
83472;SHT30;74051;47.120;18.370;2023-11-21T05:11:46;6.72;89.71
83472;SHT30;74051;47.120;18.370;2023-11-21T05:14:12;6.94;88.28
83472;SHT30;74051;47.120;18.370;2023-11-21T05:16:40;6.84;87.79
83472;SHT30;74051;47.120;18.370;2023-11-21T05:19:06;6.87;88.24
83472;SHT30;74051;47.120;18.370;2023-11-21T05:21:33;6.77;88.38
83472;SHT30;74051;47.120;18.370;2023-11-21T05:23:59;6.83;88.98
83472;SHT30;74051;47.120;18.370;2023-11-21T05:26:26;6.86;89.30
83472;SHT30;74051;47.120;18.370;2023-11-21T05:28:52;6.88;89.45
83472;SHT30;74051;47.120;18.370;2023-11-21T05:31:18;6.73;88.72
83472;SHT30;74051;47.120;18.370;2023-11-21T05:33:45;6.94;88.52
83472;SHT30;74051;47.120;18.370;2023-11-21T05:36:12;6.98;88.32
83472;SHT30;74051;47.120;18.370;2023-11-21T05:38:38;7.09;87.09
83472;SHT30;74051;47.120;18.370;2023-11-21T05:41:04;7.17;87.18
83472;SHT30;74051;47.120;18.370;2023-11-21T05:43:31;7.36;85.89
83472;SHT30;74051;47.120;18.370;2023-11-21T05:45:58;7.58;85.80
83472;SHT30;74051;47.120;18.370;2023-11-21T05:48:24;7.76;84.48
83472;SHT30;74051;47.120;18.370;2023-11-21T05:50:51;7.87;83.66
83472;SHT30;74051;47.120;18.370;2023-11-21T05:53:18;7.90;83.33
83472;SHT30;74051;47.120;18.370;2023-11-21T05:55:44;8.01;83.42
83472;SHT30;74051;47.120;18.370;2023-11-21T05:58:11;8.16;82.05
83472;SHT30;74051;47.120;18.370;2023-11-21T06:00:38;8.13;82.71
83472;SHT30;74051;47.120;18.370;2023-11-21T06:03:04;8.10;83.67
83472;SHT30;74051;47.120;18.370;2023-11-21T06:05:32;8.14;84.83
83472;SHT30;74051;47.120;18.370;2023-11-21T06:07:59;8.13;83.32
83472;SHT30;74051;47.120;18.370;2023-11-21T06:10:26;8.10;84.36
83472;SHT30;74051;47.120;18.370;2023-11-21T06:12:54;8.06;83.16
83472;SHT30;74051;47.120;18.370;2023-11-21T06:15:21;8.06;85.08
83472;SHT30;74051;47.120;18.370;2023-11-21T06:17:49;8.04;83.45
83472;SHT30;74051;47.120;18.370;2023-11-21T06:20:19;8.07;83.10
83472;SHT30;74051;47.120;18.370;2023-11-21T06:22:47;8.14;83.92
83472;SHT30;74051;47.120;18.370;2023-11-21T06:25:14;8.13;83.25
83472;SHT30;74051;47.120;18.370;2023-11-21T06:27:46;8.16;82.09
83472;SHT30;74051;47.120;18.370;2023-11-21T06:30:14;8.24;82.90
83472;SHT30;74051;47.120;18.370;2023-11-21T06:32:41;8.35;82.23
83472;SHT30;74051;47.120;18.370;2023-11-21T06:35:12;8.45;81.97
83472;SHT30;74051;47.120;18.370;2023-11-21T06:37:39;8.52;81.99
83472;SHT30;74051;47.120;18.370;2023-11-21T06:40:06;8.62;81.84
83472;SHT30;74051;47.120;18.370;2023-11-21T06:42:33;8.68;82.13
83472;SHT30;74051;47.120;18.370;2023-11-21T06:44:59;8.75;82.69
83472;SHT30;74051;47.120;18.370;2023-11-21T06:47:29;8.73;80.48
83472;SHT30;74051;47.120;18.370;2023-11-21T06:49:56;8.61;81.01
83472;SHT30;74051;47.120;18.370;2023-11-21T06:52:24;8.58;81.14
83472;SHT30;74051;47.120;18.370;2023-11-21T06:54:50;8.58;82.50
83472;SHT30;74051;47.120;18.370;2023-11-21T06:57:17;8.87;80.63
83472;SHT30;74051;47.120;18.370;2023-11-21T06:59:44;8.83;81.53
83472;SHT30;74051;47.120;18.370;2023-11-21T07:02:10;8.72;81.93
83472;SHT30;74051;47.120;18.370;2023-11-21T07:04:37;8.71;83.86
83472;SHT30;74051;47.120;18.370;2023-11-21T07:07:04;8.64;83.86
83472;SHT30;74051;47.120;18.370;2023-11-21T07:09:30;8.55;83.04
83472;SHT30;74051;47.120;18.370;2023-11-21T07:11:57;8.54;85.12
83472;SHT30;74051;47.120;18.370;2023-11-21T07:14:24;8.52;85.97
83472;SHT30;74051;47.120;18.370;2023-11-21T07:16:50;8.58;84.64
83472;SHT30;74051;47.120;18.370;2023-11-21T07:19:18;8.56;83.82
83472;SHT30;74051;47.120;18.370;2023-11-21T07:21:46;8.58;85.21
83472;SHT30;74051;47.120;18.370;2023-11-21T07:24:12;8.73;82.89
83472;SHT30;74051;47.120;18.370;2023-11-21T07:26:39;8.90;81.56
83472;SHT30;74051;47.120;18.370;2023-11-21T07:29:06;8.95;82.19
83472;SHT30;74051;47.120;18.370;2023-11-21T07:31:32;8.95;81.40
83472;SHT30;74051;47.120;18.370;2023-11-21T07:34:01;8.89;81.11
83472;SHT30;74051;47.120;18.370;2023-11-21T07:36:27;8.79;82.37
83472;SHT30;74051;47.120;18.370;2023-11-21T07:38:54;8.71;83.68
83472;SHT30;74051;47.120;18.370;2023-11-21T07:41:20;8.82;83.97
83472;SHT30;74051;47.120;18.370;2023-11-21T07:43:47;8.75;84.77
83472;SHT30;74051;47.120;18.370;2023-11-21T07:46:13;8.72;84.35
83472;SHT30;74051;47.120;18.370;2023-11-21T07:48:41;8.66;83.47
83472;SHT30;74051;47.120;18.370;2023-11-21T07:51:12;8.66;83.29
83472;SHT30;74051;47.120;18.370;2023-11-21T07:53:39;8.66;83.28
83472;SHT30;74051;47.120;18.370;2023-11-21T07:56:07;8.72;83.20
83472;SHT30;74051;47.120;18.370;2023-11-21T07:58:35;8.75;83.37
83472;SHT30;74051;47.120;18.370;2023-11-21T08:01:03;8.76;85.24
83472;SHT30;74051;47.120;18.370;2023-11-21T08:03:30;8.85;85.31
83472;SHT30;74051;47.120;18.370;2023-11-21T08:05:59;8.90;84.65
83472;SHT30;74051;47.120;18.370;2023-11-21T08:08:26;8.92;82.84
83472;SHT30;74051;47.120;18.370;2023-11-21T08:10:52;8.99;83.91
83472;SHT30;74051;47.120;18.370;2023-11-21T08:13:25;9.10;82.49
83472;SHT30;74051;47.120;18.370;2023-11-21T08:15:56;9.20;83.77
83472;SHT30;74051;47.120;18.370;2023-11-21T08:18:24;9.19;82.07
83472;SHT30;74051;47.120;18.370;2023-11-21T08:20:51;9.30;82.95
83472;SHT30;74051;47.120;18.370;2023-11-21T08:23:17;9.40;82.47
83472;SHT30;74051;47.120;18.370;2023-11-21T08:25:44;9.44;82.64
83472;SHT30;74051;47.120;18.370;2023-11-21T08:28:11;9.44;82.11
83472;SHT30;74051;47.120;18.370;2023-11-21T08:30:37;9.43;82.20
83472;SHT30;74051;47.120;18.370;2023-11-21T08:33:04;9.44;81.52
83472;SHT30;74051;47.120;18.370;2023-11-21T08:35:31;9.55;81.90
83472;SHT30;74051;47.120;18.370;2023-11-21T08:37:57;9.64;81.74
83472;SHT30;74051;47.120;18.370;2023-11-21T08:40:24;9.64;80.94
83472;SHT30;74051;47.120;18.370;2023-11-21T08:42:51;9.58;81.05
83472;SHT30;74051;47.120;18.370;2023-11-21T08:45:23;9.40;81.46
83472;SHT30;74051;47.120;18.370;2023-11-21T08:47:49;9.27;82.20
83472;SHT30;74051;47.120;18.370;2023-11-21T08:50:16;9.23;82.34
83472;SHT30;74051;47.120;18.370;2023-11-21T08:52:44;9.22;82.64
83472;SHT30;74051;47.120;18.370;2023-11-21T08:55:10;9.16;83.24
83472;SHT30;74051;47.120;18.370;2023-11-21T08:57:39;9.14;83.91
83472;SHT30;74051;47.120;18.370;2023-11-21T09:00:10;9.16;83.85
83472;SHT30;74051;47.120;18.370;2023-11-21T09:02:43;9.06;84.57
83472;SHT30;74051;47.120;18.370;2023-11-21T09:05:11;8.99;85.36
83472;SHT30;74051;47.120;18.370;2023-11-21T09:07:39;8.93;85.82
83472;SHT30;74051;47.120;18.370;2023-11-21T09:10:07;8.89;86.35
83472;SHT30;74051;47.120;18.370;2023-11-21T09:12:36;8.80;86.80
83472;SHT30;74051;47.120;18.370;2023-11-21T09:15:07;8.79;87.40
83472;SHT30;74051;47.120;18.370;2023-11-21T09:17:35;8.65;88.05
83472;SHT30;74051;47.120;18.370;2023-11-21T09:20:02;8.62;89.26
83472;SHT30;74051;47.120;18.370;2023-11-21T09:22:35;8.71;88.19
83472;SHT30;74051;47.120;18.370;2023-11-21T09:25:01;8.66;88.49
83472;SHT30;74051;47.120;18.370;2023-11-21T09:27:31;8.56;89.28
83472;SHT30;74051;47.120;18.370;2023-11-21T09:29:57;8.64;88.93
83472;SHT30;74051;47.120;18.370;2023-11-21T09:32:24;8.62;89.24
83472;SHT30;74051;47.120;18.370;2023-11-21T09:34:50;8.61;89.16
83472;SHT30;74051;47.120;18.370;2023-11-21T09:37:17;8.65;89.12
83472;SHT30;74051;47.120;18.370;2023-11-21T09:39:43;8.72;88.93
83472;SHT30;74051;47.120;18.370;2023-11-21T09:42:12;8.68;89.60
83472;SHT30;74051;47.120;18.370;2023-11-21T09:44:45;8.66;90.75
83472;SHT30;74051;47.120;18.370;2023-11-21T09:47:15;8.66;90.83
83472;SHT30;74051;47.120;18.370;2023-11-21T09:49:47;8.68;90.13
83472;SHT30;74051;47.120;18.370;2023-11-21T09:52:16;8.73;91.40
83472;SHT30;74051;47.120;18.370;2023-11-21T09:54:45;8.86;91.78
83472;SHT30;74051;47.120;18.370;2023-11-21T09:57:11;8.80;89.91
83472;SHT30;74051;47.120;18.370;2023-11-21T09:59:38;8.89;89.53
83472;SHT30;74051;47.120;18.370;2023-11-21T10:02:07;9.03;89.63
83472;SHT30;74051;47.120;18.370;2023-11-21T10:04:37;9.07;89.52
83472;SHT30;74051;47.120;18.370;2023-11-21T10:07:03;9.12;88.32
83472;SHT30;74051;47.120;18.370;2023-11-21T10:09:36;9.10;88.74
83472;SHT30;74051;47.120;18.370;2023-11-21T10:12:05;9.17;88.91
83472;SHT30;74051;47.120;18.370;2023-11-21T10:14:37;9.10;87.97
83472;SHT30;74051;47.120;18.370;2023-11-21T10:17:04;9.22;88.12
83472;SHT30;74051;47.120;18.370;2023-11-21T10:19:36;9.30;88.30
83472;SHT30;74051;47.120;18.370;2023-11-21T10:22:03;9.37;87.97
83472;SHT30;74051;47.120;18.370;2023-11-21T10:24:29;9.48;87.77
83472;SHT30;74051;47.120;18.370;2023-11-21T10:26:56;9.52;86.63
83472;SHT30;74051;47.120;18.370;2023-11-21T10:29:22;9.58;87.03
83472;SHT30;74051;47.120;18.370;2023-11-21T10:31:52;9.64;87.37
83472;SHT30;74051;47.120;18.370;2023-11-21T10:34:21;9.64;85.92
83472;SHT30;74051;47.120;18.370;2023-11-21T10:36:48;9.62;85.92
83472;SHT30;74051;47.120;18.370;2023-11-21T10:39:19;9.70;85.33
83472;SHT30;74051;47.120;18.370;2023-11-21T10:41:47;9.75;85.57
83472;SHT30;74051;47.120;18.370;2023-11-21T10:44:14;9.65;86.58
83472;SHT30;74051;47.120;18.370;2023-11-21T10:46:53;9.70;86.92
83472;SHT30;74051;47.120;18.370;2023-11-21T10:49:25;9.78;84.98
83472;SHT30;74051;47.120;18.370;2023-11-21T10:51:53;9.65;85.91
83472;SHT30;74051;47.120;18.370;2023-11-21T10:54:23;9.75;85.55
83472;SHT30;74051;47.120;18.370;2023-11-21T10:56:57;9.81;85.08
83472;SHT30;74051;47.120;18.370;2023-11-21T10:59:29;9.77;85.19
83472;SHT30;74051;47.120;18.370;2023-11-21T11:02:01;9.78;85.48
83472;SHT30;74051;47.120;18.370;2023-11-21T11:04:30;9.82;84.93
83472;SHT30;74051;47.120;18.370;2023-11-21T11:06:57;9.86;85.60
83472;SHT30;74051;47.120;18.370;2023-11-21T11:09:26;9.83;86.00
83472;SHT30;74051;47.120;18.370;2023-11-21T11:11:52;9.88;86.28
83472;SHT30;74051;47.120;18.370;2023-11-21T11:14:20;9.86;85.09
83472;SHT30;74051;47.120;18.370;2023-11-21T11:16:52;9.88;85.15
83472;SHT30;74051;47.120;18.370;2023-11-21T11:19:19;9.78;85.03
83472;SHT30;74051;47.120;18.370;2023-11-21T11:21:58;9.77;84.24
83472;SHT30;74051;47.120;18.370;2023-11-21T11:24:41;9.72;84.92
83472;SHT30;74051;47.120;18.370;2023-11-21T11:33:07;10.09;85.16
83472;SHT30;74051;47.120;18.370;2023-11-21T11:38:31;10.06;83.58
83472;SHT30;74051;47.120;18.370;2023-11-21T11:41:02;10.16;84.92
83472;SHT30;74051;47.120;18.370;2023-11-21T11:43:31;10.28;84.03
83472;SHT30;74051;47.120;18.370;2023-11-21T11:46:11;10.44;83.61
83472;SHT30;74051;47.120;18.370;2023-11-21T11:48:41;10.59;83.58
83472;SHT30;74051;47.120;18.370;2023-11-21T11:51:11;10.70;82.69
83472;SHT30;74051;47.120;18.370;2023-11-21T11:53:41;10.71;81.54
83472;SHT30;74051;47.120;18.370;2023-11-21T11:56:28;10.78;82.10
83472;SHT30;74051;47.120;18.370;2023-11-21T11:58:58;10.85;81.10
83472;SHT30;74051;47.120;18.370;2023-11-21T12:01:26;10.75;80.34
83472;SHT30;74051;47.120;18.370;2023-11-21T12:06:43;10.81;80.76
83472;SHT30;74051;47.120;18.370;2023-11-21T12:09:18;10.92;80.41
83472;SHT30;74051;47.120;18.370;2023-11-21T12:11:46;10.95;81.49
83472;SHT30;74051;47.120;18.370;2023-11-21T12:14:13;10.99;79.83
83472;SHT30;74051;47.120;18.370;2023-11-21T12:16:40;11.02;80.23
83472;SHT30;74051;47.120;18.370;2023-11-21T12:19:06;10.99;80.81
83472;SHT30;74051;47.120;18.370;2023-11-21T12:21:33;10.99;81.17
83472;SHT30;74051;47.120;18.370;2023-11-21T12:24:00;11.01;81.15
83472;SHT30;74051;47.120;18.370;2023-11-21T12:26:26;10.90;81.77
83472;SHT30;74051;47.120;18.370;2023-11-21T12:28:53;10.97;82.09
83472;SHT30;74051;47.120;18.370;2023-11-21T12:31:23;10.95;81.51
83472;SHT30;74051;47.120;18.370;2023-11-21T12:33:49;10.95;81.01
83472;SHT30;74051;47.120;18.370;2023-11-21T12:36:16;10.90;82.56
83472;SHT30;74051;47.120;18.370;2023-11-21T12:38:43;10.84;82.67
83472;SHT30;74051;47.120;18.370;2023-11-21T12:41:09;10.84;83.36
83472;SHT30;74051;47.120;18.370;2023-11-21T12:43:36;10.82;82.17
83472;SHT30;74051;47.120;18.370;2023-11-21T12:46:07;10.77;82.02
83472;SHT30;74051;47.120;18.370;2023-11-21T12:48:33;10.74;81.96
83472;SHT30;74051;47.120;18.370;2023-11-21T12:51:00;10.68;82.39
83472;SHT30;74051;47.120;18.370;2023-11-21T12:53:26;10.65;82.91
83472;SHT30;74051;47.120;18.370;2023-11-21T12:55:59;10.60;83.81
83472;SHT30;74051;47.120;18.370;2023-11-21T12:58:27;10.71;83.96
83472;SHT30;74051;47.120;18.370;2023-11-21T13:00:53;10.75;83.71
83472;SHT30;74051;47.120;18.370;2023-11-21T13:03:20;10.59;84.89
83472;SHT30;74051;47.120;18.370;2023-11-21T13:05:53;10.51;84.19
83472;SHT30;74051;47.120;18.370;2023-11-21T13:08:22;10.43;85.44
83472;SHT30;74051;47.120;18.370;2023-11-21T13:10:56;10.39;85.32
83472;SHT30;74051;47.120;18.370;2023-11-21T13:13:24;10.30;85.99
83472;SHT30;74051;47.120;18.370;2023-11-21T13:15:52;10.20;85.52
83472;SHT30;74051;47.120;18.370;2023-11-21T13:18:23;10.22;85.91
83472;SHT30;74051;47.120;18.370;2023-11-21T13:20:50;10.33;86.53
83472;SHT30;74051;47.120;18.370;2023-11-21T13:23:16;10.33;84.63
83472;SHT30;74051;47.120;18.370;2023-11-21T13:25:43;10.28;85.18
83472;SHT30;74051;47.120;18.370;2023-11-21T13:28:11;10.30;85.65
83472;SHT30;74051;47.120;18.370;2023-11-21T13:30:41;10.32;85.43
83472;SHT30;74051;47.120;18.370;2023-11-21T13:33:08;10.34;85.04
83472;SHT30;74051;47.120;18.370;2023-11-21T13:35:37;10.34;84.73
83472;SHT30;74051;47.120;18.370;2023-11-21T13:38:12;10.41;86.46
83472;SHT30;74051;47.120;18.370;2023-11-21T13:40:40;10.44;84.59
83472;SHT30;74051;47.120;18.370;2023-11-21T13:43:13;10.33;84.64
83472;SHT30;74051;47.120;18.370;2023-11-21T13:45:40;10.37;86.48
83472;SHT30;74051;47.120;18.370;2023-11-21T13:48:07;10.37;86.76
83472;SHT30;74051;47.120;18.370;2023-11-21T13:50:37;10.41;85.59
83472;SHT30;74051;47.120;18.370;2023-11-21T13:53:03;10.37;85.00
83472;SHT30;74051;47.120;18.370;2023-11-21T13:55:52;10.32;85.48
83472;SHT30;74051;47.120;18.370;2023-11-21T13:58:24;10.26;86.47
83472;SHT30;74051;47.120;18.370;2023-11-21T14:01:09;10.34;86.36
83472;SHT30;74051;47.120;18.370;2023-11-21T14:03:51;10.30;86.50
83472;SHT30;74051;47.120;18.370;2023-11-21T14:06:26;10.22;85.43
83472;SHT30;74051;47.120;18.370;2023-11-21T14:09:01;10.12;85.77
83472;SHT30;74051;47.120;18.370;2023-11-21T14:11:32;10.10;87.59
83472;SHT30;74051;47.120;18.370;2023-11-21T14:14:00;10.02;85.00
83472;SHT30;74051;47.120;18.370;2023-11-21T14:16:28;10.12;87.72
83472;SHT30;74051;47.120;18.370;2023-11-21T14:18:54;10.03;85.46
83472;SHT30;74051;47.120;18.370;2023-11-21T14:21:29;9.96;87.85
83472;SHT30;74051;47.120;18.370;2023-11-21T14:23:56;9.91;85.66
83472;SHT30;74051;47.120;18.370;2023-11-21T14:26:22;9.98;87.98
83472;SHT30;74051;47.120;18.370;2023-11-21T14:28:50;9.82;86.14
83472;SHT30;74051;47.120;18.370;2023-11-21T14:31:17;9.67;85.96
83472;SHT30;74051;47.120;18.370;2023-11-21T14:33:44;9.67;86.85
83472;SHT30;74051;47.120;18.370;2023-11-21T14:36:11;9.83;87.09
83472;SHT30;74051;47.120;18.370;2023-11-21T14:38:37;9.99;86.75
83472;SHT30;74051;47.120;18.370;2023-11-21T14:41:06;9.91;87.85
83472;SHT30;74051;47.120;18.370;2023-11-21T14:43:37;9.86;86.67
83472;SHT30;74051;47.120;18.370;2023-11-21T14:46:05;9.68;87.67
83472;SHT30;74051;47.120;18.370;2023-11-21T14:48:36;9.50;87.29
83472;SHT30;74051;47.120;18.370;2023-11-21T14:51:09;9.45;90.13
83472;SHT30;74051;47.120;18.370;2023-11-21T14:53:54;9.30;88.52
83472;SHT30;74051;47.120;18.370;2023-11-21T14:56:21;9.28;89.88
83472;SHT30;74051;47.120;18.370;2023-11-21T14:58:54;9.17;90.08
83472;SHT30;74051;47.120;18.370;2023-11-21T15:01:22;9.09;89.69
83472;SHT30;74051;47.120;18.370;2023-11-21T15:04:15;8.90;89.60
83472;SHT30;74051;47.120;18.370;2023-11-21T15:06:49;8.82;90.80
83472;SHT30;74051;47.120;18.370;2023-11-21T15:09:18;8.56;89.99
83472;SHT30;74051;47.120;18.370;2023-11-21T15:11:44;8.54;91.61
83472;SHT30;74051;47.120;18.370;2023-11-21T15:14:12;8.46;91.38
83472;SHT30;74051;47.120;18.370;2023-11-21T15:16:46;8.46;91.25
83472;SHT30;74051;47.120;18.370;2023-11-21T15:19:16;8.30;91.61
83472;SHT30;74051;47.120;18.370;2023-11-21T15:21:44;8.28;92.15
83472;SHT30;74051;47.120;18.370;2023-11-21T15:24:12;8.35;91.82
83472;SHT30;74051;47.120;18.370;2023-11-21T15:26:39;8.44;91.23
83472;SHT30;74051;47.120;18.370;2023-11-21T15:29:05;8.37;91.84
83472;SHT30;74051;47.120;18.370;2023-11-21T15:31:31;8.17;92.28
83472;SHT30;74051;47.120;18.370;2023-11-21T15:33:58;8.16;92.88
83472;SHT30;74051;47.120;18.370;2023-11-21T15:36:26;8.10;92.71
83472;SHT30;74051;47.120;18.370;2023-11-21T15:38:53;7.94;93.62
83472;SHT30;74051;47.120;18.370;2023-11-21T15:41:20;7.76;93.35
83472;SHT30;74051;47.120;18.370;2023-11-21T15:43:47;7.65;94.01
83472;SHT30;74051;47.120;18.370;2023-11-21T15:46:15;7.62;93.61